Time;durP1;ratioP1;P1;durP2;ratioP2;P2;SDS_P1;SDS_P2;PMS_P1;PMS_P2;Temp;Humidity;BMP_temperature;BMP_pressure;BME280_temperature;BME280_humidity;BME280_pressure;Samples;Min_cycle;Max_cycle;Signal;HPM_P1;HPM_P2
2022/12/11 00:00:18;;;;;;;6.22;2.80;;;;;;;11.86;78.55;91360.25;5041758;28;20513;-35
2022/12/11 00:02:44;;;;;;;5.68;2.55;;;;;;;11.91;78.83;91386.78;5036207;28;20029;-35
2022/12/11 00:05:09;;;;;;;3.20;2.45;;;;;;;11.93;78.99;91386.91;5042179;28;20409;-35
2022/12/11 00:07:35;;;;;;;5.30;2.25;;;;;;;11.98;78.61;91380.28;5041466;28;20409;-35
2022/12/11 00:10:00;;;;;;;7.97;2.75;;;;;;;12.04;78.53;91375.06;5043562;28;20485;-35
2022/12/11 00:12:26;;;;;;;6.65;2.80;;;;;;;11.93;79.08;91364.78;5043608;28;20041;-35
2022/12/11 00:14:51;;;;;;;6.57;2.30;;;;;;;11.91;79.33;91369.50;5038668;28;20025;-35
2022/12/11 00:17:17;;;;;;;3.20;2.13;;;;;;;11.84;79.63;91357.38;5039324;28;20707;-35
2022/12/11 00:19:42;;;;;;;4.10;2.10;;;;;;;11.85;79.70;91367.09;5050625;28;20028;-35
2022/12/11 00:22:08;;;;;;;6.47;2.20;;;;;;;11.82;79.88;91339.94;5044966;28;20056;-35
2022/12/11 00:24:33;;;;;;;3.67;2.03;;;;;;;11.84;79.64;91323.47;5049615;28;20409;-35
2022/12/11 00:26:59;;;;;;;5.18;1.75;;;;;;;11.77;79.73;91316.16;5043271;28;20025;-35
2022/12/11 00:29:24;;;;;;;4.03;2.03;;;;;;;11.80;79.97;91343.31;5048601;28;20029;-35
2022/12/11 00:31:50;;;;;;;3.72;1.70;;;;;;;11.89;79.67;91327.91;5046260;28;20386;-35
2022/12/11 00:34:15;;;;;;;2.60;1.77;;;;;;;11.80;80.07;91351.59;5048314;28;20021;-35
2022/12/11 00:36:40;;;;;;;4.38;1.90;;;;;;;11.87;79.75;91363.72;5042894;28;20413;-35
2022/12/11 00:39:06;;;;;;;4.85;2.25;;;;;;;11.89;79.97;91375.63;5045451;28;20063;-35
2022/12/11 00:41:32;;;;;;;8.75;2.97;;;;;;;11.89;79.89;91366.63;5049451;28;20481;-36
2022/12/11 00:43:57;;;;;;;4.30;2.15;;;;;;;12.01;79.23;91365.25;5048490;28;20044;-36
2022/12/11 00:46:22;;;;;;;4.25;1.80;;;;;;;12.03;78.65;91354.28;5044953;28;20481;-36
2022/12/11 00:48:49;;;;;;;2.10;1.50;;;;;;;12.04;78.35;91352.25;5043517;28;20040;-35
2022/12/11 00:51:16;;;;;;;3.83;1.75;;;;;;;12.04;78.46;91341.19;5049634;28;20033;-35
2022/12/11 00:53:42;;;;;;;2.58;1.70;;;;;;;12.10;78.23;91353.28;5049471;28;20024;-35
2022/12/11 00:56:16;;;;;;;4.78;2.70;;;;;;;12.21;77.98;91370.44;5047820;28;20962;-35
2022/12/11 00:58:41;;;;;;;3.58;1.40;;;;;;;12.18;78.14;91381.38;5045226;28;20024;-35
2022/12/11 01:01:08;;;;;;;4.53;1.85;;;;;;;12.22;78.35;91366.31;5046240;28;20032;-36
2022/12/11 01:03:34;;;;;;;6.38;2.50;;;;;;;12.27;77.88;91373.53;5048765;28;20052;-35
2022/12/11 01:06:00;;;;;;;4.75;1.98;;;;;;;12.33;77.48;91365.53;5049268;28;20429;-35
2022/12/11 01:08:25;;;;;;;4.88;2.30;;;;;;;12.31;77.84;91359.91;5044224;28;20043;-36
2022/12/11 01:10:51;;;;;;;4.53;2.13;;;;;;;12.21;78.17;91337.97;5049450;28;20021;-36
2022/12/11 01:13:16;;;;;;;3.63;1.80;;;;;;;12.23;78.19;91331.81;5042144;28;20467;-35
2022/12/11 01:15:44;;;;;;;2.97;1.48;;;;;;;12.24;77.98;91333.22;5049350;28;20013;-35
2022/12/11 01:18:11;;;;;;;9.30;2.70;;;;;;;12.30;77.71;91325.28;5047610;28;20060;-36
2022/12/11 01:20:38;;;;;;;2.75;1.75;;;;;;;12.31;77.72;91318.41;5049368;28;20523;-35
2022/12/11 01:23:04;;;;;;;7.00;2.10;;;;;;;12.23;77.99;91302.09;5045203;28;20029;-35
2022/12/11 01:25:31;;;;;;;7.57;2.20;;;;;;;12.33;77.58;91315.72;5053276;28;20024;-36
2022/12/11 01:27:56;;;;;;;3.63;1.98;;;;;;;12.30;78.13;91322.50;5048052;28;20408;-36
2022/12/11 01:30:23;;;;;;;8.25;2.90;;;;;;;12.28;77.85;91330.69;5046336;28;20040;-35
2022/12/11 01:32:49;;;;;;;9.75;2.47;;;;;;;12.34;77.84;91333.78;5049385;28;20040;-35
2022/12/11 01:35:15;;;;;;;5.32;1.75;;;;;;;12.38;77.56;91322.94;5043201;28;20045;-36
2022/12/11 01:37:41;;;;;;;3.92;1.73;;;;;;;12.40;77.52;91337.59;5041893;28;20090;-36
2022/12/11 01:40:08;;;;;;;2.65;1.40;;;;;;;12.43;77.33;91339.13;5045653;28;20029;-35
2022/12/11 01:42:34;;;;;;;4.72;1.98;;;;;;;12.47;77.49;91339.34;5044347;28;20533;-36
2022/12/11 01:45:20;;;;;;;7.57;2.08;;;;;;;12.41;77.63;91330.72;5045452;28;20048;-36
2022/12/11 01:47:51;;;;;;;4.18;1.65;;;;;;;12.41;77.45;91327.94;5045502;28;20061;-35
2022/12/11 01:50:17;;;;;;;3.90;1.80;;;;;;;12.50;77.21;91335.34;5044885;28;20096;-36
2022/12/11 01:52:45;;;;;;;3.38;1.95;;;;;;;12.52;76.99;91331.97;5046902;28;20393;-36
2022/12/11 01:55:11;;;;;;;3.78;1.83;;;;;;;12.60;76.64;91333.13;5050422;28;20420;-36
2022/12/11 01:57:40;;;;;;;6.60;2.00;;;;;;;12.64;76.26;91338.16;5046425;28;20044;-36
2022/12/11 02:00:06;;;;;;;9.88;2.30;;;;;;;12.65;76.40;91350.66;5046954;28;20152;-36
2022/12/11 02:02:32;;;;;;;4.28;1.90;;;;;;;12.72;76.05;91327.50;5039291;28;20797;-35
2022/12/11 02:04:58;;;;;;;4.05;1.92;;;;;;;12.74;75.83;91353.25;5048001;28;20021;-35
2022/12/11 02:07:24;;;;;;;4.15;1.50;;;;;;;12.80;75.84;91342.47;5044073;28;20508;-35
2022/12/11 02:09:49;;;;;;;3.42;1.70;;;;;;;12.84;75.26;91353.75;5043684;28;20021;-36
2022/12/11 02:12:35;;;;;;;5.63;2.08;;;;;;;12.84;75.37;91350.97;5044962;28;20033;-36
2022/12/11 02:15:12;;;;;;;6.75;2.30;;;;;;;12.79;75.77;91381.84;5041750;28;20033;-36
2022/12/11 02:17:52;;;;;;;6.63;2.90;;;;;;;12.69;76.67;91386.88;5046961;28;20028;-35
2022/12/11 02:20:30;;;;;;;5.32;2.80;;;;;;;12.76;76.63;91396.91;5040662;28;20755;-36
2022/12/11 02:22:55;;;;;;;4.35;2.25;;;;;;;12.84;76.02;91398.06;5043014;28;20029;-36
2022/12/11 02:25:45;;;;;;;3.92;1.67;;;;;;;12.73;76.51;91406.47;5050571;28;20555;-35
2022/12/11 02:28:20;;;;;;;10.95;2.60;;;;;;;12.69;77.51;91418.03;5045778;28;20026;-36
2022/12/11 02:30:52;;;;;;;5.30;2.70;;;;;;;12.60;79.61;91418.94;5047589;28;20036;-35
2022/12/11 02:33:22;;;;;;;6.65;2.47;;;;;;;12.42;81.53;91426.25;5042928;28;20036;-35
2022/12/11 02:35:48;;;;;;;4.25;2.28;;;;;;;12.50;82.53;91426.69;5043366;28;20025;-36
2022/12/11 02:38:27;;;;;;;5.35;2.47;;;;;;;12.48;83.06;91414.78;5043844;28;20517;-35
2022/12/11 02:40:54;;;;;;;5.47;2.58;;;;;;;12.46;83.09;91414.69;5054181;28;20076;-36
2022/12/11 02:43:21;;;;;;;6.53;2.00;;;;;;;12.38;83.76;91417.75;5043545;28;20471;-35
2022/12/11 02:45:47;;;;;;;3.47;2.45;;;;;;;12.23;84.39;91417.56;5044961;28;20112;-36
2022/12/11 02:48:13;;;;;;;7.65;2.53;;;;;;;12.33;84.80;91427.16;5050058;28;20739;-36
2022/12/11 02:50:44;;;;;;;10.15;4.32;;;;;;;12.39;84.63;91412.94;5049273;28;20025;-35
2022/12/11 02:53:11;;;;;;;5.70;3.08;;;;;;;12.37;84.80;91404.50;5050541;28;20031;-35
2022/12/11 02:55:37;;;;;;;5.03;2.22;;;;;;;12.37;85.34;91407.25;5049343;28;20021;-35
2022/12/11 02:58:16;;;;;;;6.68;2.38;;;;;;;12.36;85.81;91425.94;5049655;28;20103;-36
2022/12/11 03:00:43;;;;;;;3.72;2.22;;;;;;;12.32;86.12;91422.22;5050198;28;20140;-36
2022/12/11 03:03:09;;;;;;;5.65;2.42;;;;;;;12.10;87.75;91411.38;5044958;28;20029;-35
2022/12/11 03:05:34;;;;;;;5.55;2.38;;;;;;;12.11;88.21;91423.88;5042659;28;20792;-35
2022/12/11 03:08:01;;;;;;;4.30;2.25;;;;;;;11.94;89.23;91431.88;5044389;28;20021;-36
2022/12/11 03:10:26;;;;;;;2.65;2.30;;;;;;;11.77;90.15;91423.97;5042230;28;20587;-35
2022/12/11 03:12:54;;;;;;;8.48;2.50;;;;;;;11.71;91.03;91423.66;5044798;28;20104;-35
2022/12/11 03:15:22;;;;;;;7.30;3.30;;;;;;;11.62;91.45;91422.44;5043744;28;20028;-36
2022/12/11 03:17:54;;;;;;;11.50;3.60;;;;;;;11.76;90.94;91428.78;5045809;28;20032;-36
2022/12/11 03:20:43;;;;;;;6.95;3.05;;;;;;;11.84;90.19;91429.25;5045026;28;20037;-35
2022/12/11 03:23:08;;;;;;;5.63;3.40;;;;;;;11.80;89.89;91433.84;5040528;28;20025;-35
2022/12/11 03:25:55;;;;;;;10.95;5.47;;;;;;;11.68;90.48;91463.53;5045424;28;20412;-35
2022/12/11 03:28:26;;;;;;;12.20;5.65;;;;;;;11.66;90.64;91461.38;5043907;28;20031;-36
2022/12/11 03:30:52;;;;;;;8.13;4.45;;;;;;;11.74;90.14;91453.56;5042988;28;20033;-36
2022/12/11 03:33:42;;;;;;;8.90;4.65;;;;;;;11.81;89.46;91441.53;5042127;28;20067;-35
2022/12/11 03:36:15;;;;;;;11.02;5.93;;;;;;;11.72;89.83;91450.69;5045410;28;20033;-36
2022/12/11 03:39:02;;;;;;;9.15;4.60;;;;;;;11.61;90.95;91450.69;5061304;28;20035;-35
2022/12/11 03:41:30;;;;;;;9.57;5.05;;;;;;;11.31;91.14;91444.09;5042698;28;20500;-36
2022/12/11 03:43:57;;;;;;;13.48;5.25;;;;;;;11.37;90.88;91455.50;5048776;28;20028;-35
2022/12/11 03:46:26;;;;;;;11.02;5.82;;;;;;;11.43;90.77;91464.16;5047600;28;20045;-35
2022/12/11 03:48:52;;;;;;;9.65;6.10;;;;;;;11.35;91.12;91463.66;5050693;28;20514;-35
2022/12/11 03:51:18;;;;;;;14.60;8.43;;;;;;;11.31;91.55;91447.59;5049250;28;20120;-36
2022/12/11 03:53:44;;;;;;;3.80;3.30;;;;;;;11.22;92.30;91437.38;5042204;28;20528;-35
2022/12/11 03:56:11;;;;;;;6.20;2.80;;;;;;;11.28;92.32;91442.56;5039831;28;20108;-35
2022/12/11 03:58:37;;;;;;;6.95;4.25;;;;;;;11.28;90.69;91442.56;5048665;28;20505;-35
2022/12/11 04:01:03;;;;;;;7.97;2.60;;;;;;;11.28;90.60;91446.03;5048105;28;20044;-35
2022/12/11 04:03:28;;;;;;;6.25;3.83;;;;;;;11.15;90.04;91446.63;5048787;28;20048;-36
2022/12/11 04:05:55;;;;;;;12.60;4.88;;;;;;;11.07;90.96;91437.13;5043935;28;20460;-35
2022/12/11 04:08:21;;;;;;;7.78;4.45;;;;;;;11.09;91.08;91432.47;5044426;28;20026;-35
2022/12/11 04:10:47;;;;;;;11.63;5.20;;;;;;;11.13;91.08;91449.25;5047204;28;20386;-35
2022/12/11 04:13:13;;;;;;;13.73;7.97;;;;;;;11.20;90.77;91444.81;5042141;28;20028;-35
2022/12/11 04:15:39;;;;;;;14.63;8.13;;;;;;;11.17;90.39;91429.47;5049543;28;20112;-35
2022/12/11 04:26:20;;;;;;;8.70;3.50;;;;;;;10.94;92.21;91421.91;5047851;28;20083;-35
2022/12/11 04:28:46;;;;;;;1.88;1.67;;;;;;;10.86;92.40;91442.78;5048584;28;20017;-35
2022/12/11 04:31:15;;;;;;;7.15;2.03;;;;;;;10.75;92.62;91444.22;5048923;28;20028;-35
2022/12/11 04:33:40;;;;;;;3.90;2.30;;;;;;;10.81;92.19;91433.53;5040664;28;20515;-35
2022/12/11 04:36:06;;;;;;;6.00;3.08;;;;;;;10.75;92.26;91438.69;5043398;28;20013;-35
2022/12/11 04:38:32;;;;;;;9.93;3.58;;;;;;;10.76;91.54;91440.16;5048347;28;20021;-35
2022/12/11 04:40:59;;;;;;;5.03;3.40;;;;;;;10.67;91.82;91449.25;5046700;28;20032;-35
2022/12/11 04:43:24;;;;;;;5.75;3.50;;;;;;;10.71;91.29;91449.50;5038250;28;20029;-35
2022/12/11 04:45:50;;;;;;;13.93;8.60;;;;;;;10.29;91.19;91433.78;5042583;28;20505;-35
2022/12/11 04:48:15;;;;;;;14.40;7.10;;;;;;;10.50;92.18;91452.34;5047815;28;20024;-34
2022/12/11 04:50:40;;;;;;;8.55;5.50;;;;;;;10.50;92.39;91466.81;5049191;28;20029;-35
2022/12/11 04:53:06;;;;;;;17.00;8.25;;;;;;;10.55;91.59;91467.81;5043922;28;20025;-35
2022/12/11 04:55:31;;;;;;;16.25;9.60;;;;;;;10.46;91.35;91465.88;5044877;28;20020;-35
2022/12/11 04:57:57;;;;;;;17.70;8.35;;;;;;;10.39;91.31;91464.78;5043180;28;20025;-36
2022/12/11 05:00:22;;;;;;;34.13;16.00;;;;;;;10.48;90.41;91466.72;5042159;28;20044;-35
2022/12/11 05:02:48;;;;;;;15.90;9.98;;;;;;;10.17;90.88;91444.09;5042561;28;20047;-36
2022/12/11 05:05:13;;;;;;;23.88;12.57;;;;;;;10.16;91.69;91458.44;5042598;28;20032;-35
2022/12/11 05:07:39;;;;;;;12.50;7.70;;;;;;;10.20;93.23;91473.22;5044833;28;20021;-35
2022/12/11 05:10:06;;;;;;;21.20;13.45;;;;;;;10.20;91.74;91484.25;5046030;28;20106;-35
2022/12/11 05:12:32;;;;;;;14.00;7.35;;;;;;;10.17;92.55;91465.41;5046145;28;20173;-35
2022/12/11 05:14:57;;;;;;;14.40;6.28;;;;;;;10.20;92.28;91461.47;5037712;28;20186;-35
2022/12/11 05:17:23;;;;;;;6.38;2.90;;;;;;;10.34;89.42;91465.09;5041765;28;20161;-35
2022/12/11 05:19:49;;;;;;;5.95;3.30;;;;;;;10.31;89.58;91475.28;5037640;28;20017;-35
2022/12/11 05:22:16;;;;;;;11.52;4.70;;;;;;;10.42;88.59;91455.31;5039089;28;20022;-35
2022/12/11 05:24:41;;;;;;;1.58;1.33;;;;;;;10.65;80.33;91471.19;5044888;28;20032;-35
2022/12/11 05:27:07;;;;;;;1.67;1.42;;;;;;;10.84;82.13;91473.03;5046959;28;20029;-35
2022/12/11 05:29:32;;;;;;;1.90;1.40;;;;;;;10.92;80.38;91474.22;5042010;28;20535;-35
2022/12/11 05:31:58;;;;;;;3.50;1.60;;;;;;;11.10;79.57;91489.16;5044858;28;20040;-36
2022/12/11 05:34:23;;;;;;;6.72;1.88;;;;;;;11.13;80.66;91482.41;5043579;28;20029;-35
2022/12/11 05:36:49;;;;;;;2.15;1.40;;;;;;;11.26;76.86;91483.88;5038317;28;20016;-35
2022/12/11 05:39:14;;;;;;;2.63;1.70;;;;;;;11.29;76.56;91468.84;5044471;28;20026;-35
2022/12/11 05:41:40;;;;;;;2.72;1.45;;;;;;;11.28;77.52;91450.84;5039235;28;20033;-35
2022/12/11 05:44:05;;;;;;;1.10;1.00;;;;;;;11.37;75.94;91445.19;5041561;28;20032;-35
2022/12/11 05:46:31;;;;;;;1.48;1.13;;;;;;;11.39;76.12;91428.00;5047102;28;20559;-35
2022/12/11 05:48:59;;;;;;;2.90;1.08;;;;;;;11.48;73.58;91420.91;5039875;28;20024;-35
2022/12/11 05:51:25;;;;;;;1.63;0.88;;;;;;;11.66;71.73;91435.75;5048693;28;20035;-35
2022/12/11 05:53:52;;;;;;;4.00;2.17;;;;;;;11.61;71.78;91432.03;5045087;28;20086;-36
2022/12/11 05:56:20;;;;;;;2.25;1.80;;;;;;;11.70;72.50;91444.31;5043162;28;20017;-36
2022/12/11 05:58:46;;;;;;;1.77;1.57;;;;;;;11.32;71.41;91410.38;5042430;28;20036;-35
2022/12/11 06:01:16;;;;;;;2.15;1.75;;;;;;;11.70;71.87;91453.31;5047011;28;20473;-36
2022/12/11 06:03:41;;;;;;;3.10;1.52;;;;;;;11.68;70.11;91455.97;5044976;28;20021;-36
2022/12/11 06:06:07;;;;;;;2.53;1.70;;;;;;;11.80;71.18;91484.31;5045668;28;20032;-36
2022/12/11 06:08:33;;;;;;;2.15;1.73;;;;;;;11.87;69.96;91466.75;5043454;28;20047;-36
2022/12/11 06:10:59;;;;;;;1.85;1.15;;;;;;;12.04;68.29;91476.69;5046574;28;20092;-36
2022/12/11 06:13:24;;;;;;;1.65;1.25;;;;;;;12.08;68.24;91474.84;5044031;28;20104;-35
2022/12/11 06:15:50;;;;;;;2.40;1.77;;;;;;;12.12;67.17;91482.69;5049241;28;20031;-36
2022/12/11 06:18:15;;;;;;;1.35;1.00;;;;;;;12.22;66.03;91468.69;5048538;28;20036;-35
2022/12/11 06:20:41;;;;;;;1.38;1.08;;;;;;;12.40;65.07;91480.78;5048545;28;20028;-36
2022/12/11 06:23:06;;;;;;;3.17;1.20;;;;;;;12.43;65.26;91458.13;5050618;28;20066;-36
2022/12/11 06:25:32;;;;;;;2.35;1.60;;;;;;;12.41;65.55;91469.09;5050059;28;20025;-35
2022/12/11 06:27:58;;;;;;;2.42;1.90;;;;;;;12.53;64.40;91475.31;5045762;28;20033;-35
2022/12/11 06:30:23;;;;;;;3.58;2.60;;;;;;;12.57;65.46;91481.06;5049430;28;20021;-36
2022/12/11 06:32:49;;;;;;;8.98;4.95;;;;;;;12.62;65.15;91479.22;5049789;28;20036;-35
2022/12/11 06:35:15;;;;;;;8.18;4.80;;;;;;;12.74;64.04;91477.13;5048978;28;20554;-35
2022/12/11 06:37:40;;;;;;;13.68;7.22;;;;;;;12.82;62.98;91474.81;5046368;28;20021;-36
2022/12/11 06:40:08;;;;;;;13.35;7.68;;;;;;;12.81;63.00;91481.66;5040780;28;20025;-36
2022/12/11 06:42:33;;;;;;;11.05;5.00;;;;;;;12.99;61.79;91490.22;5045137;28;20039;-36
2022/12/11 06:44:59;;;;;;;8.38;3.80;;;;;;;13.04;62.34;91489.81;5043852;28;20045;-36
2022/12/11 06:47:26;;;;;;;2.72;2.20;;;;;;;13.16;61.79;91493.28;5049727;28;20017;-36
2022/12/11 06:49:52;;;;;;;1.95;1.40;;;;;;;13.23;60.99;91483.22;5051194;28;20033;-36
2022/12/11 06:52:18;;;;;;;4.07;1.50;;;;;;;13.35;60.97;91486.63;5048558;28;20029;-36
2022/12/11 06:54:43;;;;;;;3.15;1.88;;;;;;;13.45;61.42;91479.53;5047849;28;20573;-36
2022/12/11 06:57:09;;;;;;;1.63;0.85;;;;;;;13.53;60.40;91482.03;5048789;28;20021;-36
2022/12/11 06:59:34;;;;;;;3.97;1.67;;;;;;;13.82;61.25;91496.00;5047751;28;20029;-36
2022/12/11 07:02:00;;;;;;;4.82;1.95;;;;;;;14.11;60.22;91493.31;5049520;28;20591;-36
2022/12/11 07:04:26;;;;;;;2.40;1.30;;;;;;;13.66;59.34;91407.16;5047079;28;20095;-36
2022/12/11 07:06:52;;;;;;;1.92;1.45;;;;;;;14.25;59.45;91474.56;5047353;28;20091;-35
2022/12/11 07:09:18;;;;;;;1.58;1.20;;;;;;;14.33;58.22;91485.38;5044547;28;20028;-35
2022/12/11 07:11:43;;;;;;;1.10;0.70;;;;;;;14.26;58.76;91481.56;5044188;28;20048;-35
2022/12/11 07:14:09;;;;;;;1.67;1.13;;;;;;;14.24;58.34;91472.41;5046226;28;20078;-35
2022/12/11 07:16:34;;;;;;;5.43;2.80;;;;;;;14.19;58.78;91463.16;5049410;28;20020;-35
2022/12/11 07:19:00;;;;;;;6.38;4.32;;;;;;;14.21;59.24;91463.25;5046458;28;20021;-35
2022/12/11 07:21:25;;;;;;;5.88;4.00;;;;;;;14.27;58.72;91474.66;5047986;28;20013;-36
2022/12/11 07:23:51;;;;;;;5.68;2.88;;;;;;;14.21;58.94;91485.47;5043523;28;20485;-36
2022/12/11 07:26:19;;;;;;;2.15;1.52;;;;;;;14.18;59.37;91499.88;5041125;28;20018;-36
2022/12/11 07:28:44;;;;;;;7.50;3.45;;;;;;;14.13;60.54;91510.06;5044105;28;20699;-36
2022/12/11 07:31:21;;;;;;;5.53;3.95;;;;;;;14.31;61.08;91524.16;5042020;28;20025;-36
2022/12/11 07:33:51;;;;;;;29.02;16.05;;;;;;;14.35;60.58;91521.56;5043712;28;20035;-36
2022/12/11 07:36:16;;;;;;;9.93;6.32;;;;;;;14.30;60.92;91523.41;5044657;28;20018;-36
2022/12/11 07:38:42;;;;;;;18.13;10.88;;;;;;;14.31;60.63;91519.28;5043255;28;20036;-36
2022/12/11 07:41:11;;;;;;;6.88;4.10;;;;;;;14.32;58.65;91523.53;5043605;28;20032;-36
2022/12/11 07:43:36;;;;;;;5.05;3.00;;;;;;;14.33;59.66;91532.56;5044822;28;20535;-36
2022/12/11 07:46:04;;;;;;;3.65;2.88;;;;;;;14.08;60.97;91549.31;5042437;28;20034;-36
2022/12/11 07:48:30;;;;;;;6.07;3.27;;;;;;;14.07;62.57;91551.38;5045531;28;20501;-36
2022/12/11 07:51:09;;;;;;;7.15;3.70;;;;;;;14.14;62.77;91555.88;5045320;28;20464;-35
2022/12/11 07:53:34;;;;;;;;;;;;;;;14.25;63.42;91565.47;5044913;28;20026;-36
2022/12/11 07:56:00;;;;;;;11.30;4.68;;;;;;;14.27;64.06;91562.78;5044728;28;19924;-36
2022/12/11 07:58:26;;;;;;;3.88;2.40;;;;;;;14.37;63.71;91566.81;5044461;28;20024;-36
2022/12/11 08:00:52;;;;;;;4.80;2.60;;;;;;;14.42;63.96;91562.19;5047552;28;20033;-36
2022/12/11 08:03:17;;;;;;;3.10;2.58;;;;;;;14.43;64.83;91560.81;5045820;28;20033;-36
2022/12/11 08:05:49;;;;;;;4.65;2.55;;;;;;;14.37;65.47;91563.31;5047115;28;20031;-36
2022/12/11 08:08:15;;;;;;;4.80;2.40;;;;;;;14.42;65.58;91559.41;5045520;28;20673;-35
2022/12/11 08:10:41;;;;;;;3.92;2.45;;;;;;;14.41;65.27;91533.69;5042405;28;20032;-36
2022/12/11 08:13:06;;;;;;;3.03;2.15;;;;;;;14.62;65.01;91560.38;5040971;28;20031;-35
2022/12/11 08:15:32;;;;;;;7.25;2.33;;;;;;;14.75;65.05;91553.38;5042791;28;20029;-36
2022/12/11 08:17:58;;;;;;;5.00;3.08;;;;;;;14.93;64.66;91560.50;5040990;28;20032;-35
2022/12/11 08:20:23;;;;;;;5.07;2.83;;;;;;;14.83;64.53;91553.75;5045934;28;20025;-36
2022/12/11 08:22:49;;;;;;;9.77;2.38;;;;;;;15.05;63.48;91549.94;5044534;28;20104;-35
2022/12/11 08:25:14;;;;;;;3.70;1.70;;;;;;;15.03;62.78;91547.06;5046717;28;20639;-36
2022/12/11 08:27:40;;;;;;;3.58;2.20;;;;;;;15.26;61.95;91540.50;5048974;28;20021;-36
2022/12/11 08:30:06;;;;;;;2.97;2.67;;;;;;;15.45;61.42;91539.28;5044830;28;20036;-36
2022/12/11 08:32:31;;;;;;;5.78;3.28;;;;;;;15.80;59.96;91553.41;5048103;28;20497;-36
2022/12/11 08:34:57;;;;;;;5.97;3.70;;;;;;;16.03;56.45;91550.25;5048550;28;20055;-36
2022/12/11 08:37:23;;;;;;;2.38;0.57;;;;;;;15.84;54.17;91542.44;5047720;28;20540;-36
2022/12/11 08:39:48;;;;;;;1.55;0.60;;;;;;;15.91;55.33;91544.16;5047625;28;20021;-36
2022/12/11 08:42:14;;;;;;;2.78;1.15;;;;;;;15.88;56.08;91539.84;5048864;28;20472;-36
2022/12/11 08:44:39;;;;;;;3.28;0.93;;;;;;;15.98;55.62;91543.09;5041743;28;20053;-36
2022/12/11 08:47:05;;;;;;;3.40;0.85;;;;;;;16.05;54.80;91538.50;5039754;28;20024;-36
2022/12/11 08:49:30;;;;;;;6.03;1.50;;;;;;;16.33;57.85;91534.13;5035328;28;20219;-36
2022/12/11 08:51:55;;;;;;;9.55;2.13;;;;;;;16.65;57.50;91541.78;5042104;28;20009;-36
2022/12/11 08:54:21;;;;;;;2.30;0.95;;;;;;;16.79;55.09;91540.91;5041449;28;20029;-36
2022/12/11 08:56:46;;;;;;;5.40;2.22;;;;;;;16.75;53.62;91524.75;5045034;28;20096;-36
2022/12/11 08:59:12;;;;;;;3.13;1.40;;;;;;;16.72;54.15;91542.03;5044750;28;20028;-36
2022/12/11 09:01:37;;;;;;;2.70;1.42;;;;;;;16.50;55.94;91536.97;5039493;28;20512;-36
2022/12/11 09:04:03;;;;;;;3.53;2.15;;;;;;;16.34;56.83;91530.72;5037731;28;20025;-36
2022/12/11 09:06:29;;;;;;;4.65;1.55;;;;;;;16.04;57.18;91507.16;5045953;28;20021;-37
2022/12/11 09:08:55;;;;;;;3.83;1.55;;;;;;;16.26;57.24;91535.22;5046979;28;20098;-36
2022/12/11 09:11:23;;;;;;;5.15;1.45;;;;;;;15.97;56.94;91532.56;5044489;28;20508;-36
2022/12/11 09:13:49;;;;;;;4.50;2.43;;;;;;;16.02;57.40;91532.13;5043995;28;20028;-36
2022/12/11 09:16:17;;;;;;;1.30;1.10;;;;;;;16.13;56.94;91533.28;5046987;28;20021;-36
2022/12/11 09:18:45;;;;;;;2.50;1.20;;;;;;;16.15;56.49;91550.78;5042503;28;20033;-36
2022/12/11 09:21:13;;;;;;;1.85;1.20;;;;;;;15.97;56.01;91538.84;5046768;28;20439;-36
2022/12/11 09:23:39;;;;;;;2.00;1.30;;;;;;;15.93;56.61;91536.63;5044447;28;20056;-36
2022/12/11 09:26:06;;;;;;;2.15;1.83;;;;;;;15.89;55.83;91541.28;5044518;28;20027;-36
2022/12/11 09:28:32;;;;;;;3.00;1.00;;;;;;;15.72;56.74;91511.31;5042571;28;20036;-36
2022/12/11 09:30:57;;;;;;;5.78;1.13;;;;;;;15.99;57.47;91530.59;5046627;28;20029;-36
2022/12/11 09:33:23;;;;;;;1.55;0.98;;;;;;;16.07;55.59;91507.97;5046846;28;20160;-36
2022/12/11 09:35:58;;;;;;;4.07;0.80;;;;;;;16.23;54.63;91528.84;5046592;28;20788;-36
2022/12/11 09:38:24;;;;;;;3.55;1.08;;;;;;;16.38;53.94;91521.78;5046503;28;20024;-36
2022/12/11 09:40:50;;;;;;;2.58;1.27;;;;;;;16.45;54.42;91518.63;5046885;28;20028;-36
2022/12/11 09:43:27;;;;;;;4.10;2.15;;;;;;;16.75;54.47;91508.03;5045842;28;20701;-36
2022/12/11 09:45:54;;;;;;;5.05;1.80;;;;;;;16.85;52.86;91497.28;5047418;28;20509;-37
2022/12/11 09:48:21;;;;;;;3.40;1.20;;;;;;;17.00;52.72;91496.47;5050252;28;20059;-36
2022/12/11 09:50:47;;;;;;;6.15;2.58;;;;;;;17.24;52.05;91508.59;5045143;28;20055;-36
2022/12/11 09:53:22;;;;;;;3.08;1.60;;;;;;;17.77;49.83;91507.78;5041888;28;20033;-36
2022/12/11 09:56:20;;;;;;;2.33;1.00;;;;;;;18.51;46.93;91502.09;5051833;28;20025;-36
2022/12/11 09:59:03;;;;;;;7.88;1.40;;;;;;;18.08;48.21;91477.50;5044972;28;20025;-37
2022/12/11 10:01:53;;;;;;;4.25;1.10;;;;;;;17.96;49.68;91499.44;5045219;28;20029;-36
2022/12/11 10:04:27;;;;;;;5.85;1.50;;;;;;;17.77;50.56;91502.22;5042147;28;20033;-36
2022/12/11 10:07:08;;;;;;;1.67;0.95;;;;;;;17.63;50.01;91507.28;5042290;28;20505;-37
2022/12/11 10:09:41;;;;;;;2.95;0.70;;;;;;;17.51;49.81;91493.59;5045080;28;20467;-36
2022/12/11 10:12:37;;;;;;;2.17;0.98;;;;;;;17.37;50.57;91504.19;5041479;28;20129;-36
2022/12/11 10:15:02;;;;;;;1.42;1.02;;;;;;;17.18;51.07;91500.00;5039752;28;20029;-36
2022/12/11 10:17:30;;;;;;;1.88;1.20;;;;;;;17.00;52.11;91484.63;5046746;28;20435;-36
2022/12/11 10:20:01;;;;;;;1.70;1.17;;;;;;;16.86;51.94;91484.78;5039710;28;20027;-37
2022/12/11 10:22:29;;;;;;;6.72;1.52;;;;;;;16.72;52.89;91464.72;5050105;28;20082;-36
2022/12/11 10:25:00;;;;;;;1.75;1.35;;;;;;;16.56;54.50;91475.94;5046777;28;20031;-36
2022/12/11 10:27:32;;;;;;;2.30;1.00;;;;;;;16.34;54.18;91461.09;5049557;28;20119;-36
2022/12/11 10:30:06;;;;;;;2.40;1.70;;;;;;;16.31;54.90;91475.53;5049075;28;20868;-36
2022/12/11 10:32:53;;;;;;;4.43;1.50;;;;;;;16.34;54.78;91477.06;5042816;28;20040;-36
2022/12/11 10:35:29;;;;;;;3.97;1.00;;;;;;;16.31;54.94;91476.25;5062441;28;20116;-36
2022/12/11 10:37:57;;;;;;;2.25;0.80;;;;;;;16.20;56.07;91477.19;5045920;28;20017;-37
2022/12/11 10:40:24;;;;;;;2.30;1.10;;;;;;;16.06;56.25;91473.84;5048237;28;20532;-36
2022/12/11 10:42:53;;;;;;;1.08;0.68;;;;;;;15.84;56.75;91470.09;5049358;28;20611;-37
2022/12/11 10:45:19;;;;;;;2.60;1.10;;;;;;;15.75;57.52;91469.03;5046565;28;20040;-37
2022/12/11 10:47:45;;;;;;;4.25;1.13;;;;;;;15.60;58.41;91466.97;5040140;28;20187;-36
2022/12/11 10:50:24;;;;;;;3.40;1.23;;;;;;;15.39;59.64;91453.50;5046907;28;20052;-36
2022/12/11 10:52:51;;;;;;;4.72;1.60;;;;;;;15.29;59.93;91435.66;5048643;28;20025;-36
2022/12/11 10:55:23;;;;;;;4.28;1.23;;;;;;;15.38;59.48;91440.22;5042930;28;20424;-36
2022/12/11 10:58:00;;;;;;;0.80;0.80;;;;;;;15.41;58.36;91438.97;5045850;28;20625;-36
2022/12/11 11:00:37;;;;;;;6.70;1.10;;;;;;;15.40;59.21;91441.03;5049483;28;20505;-36
2022/12/11 11:03:16;;;;;;;2.17;1.13;;;;;;;15.24;59.37;91443.09;5048885;28;20501;-35
2022/12/11 11:05:42;;;;;;;;;;;;;;;15.25;59.62;91447.31;5049123;28;20025;-36
2022/12/11 11:08:18;;;;;;;1.55;0.85;;;;;;;15.15;59.35;91447.59;5048655;28;19935;-36
2022/12/11 11:10:52;;;;;;;3.67;1.02;;;;;;;15.22;59.56;91447.84;5049540;28;20024;-36
2022/12/11 11:13:20;;;;;;;1.52;1.20;;;;;;;15.25;59.88;91429.91;5050546;28;20036;-36
2022/12/11 11:15:46;;;;;;;3.30;0.90;;;;;;;15.34;58.81;91440.78;5049469;28;20051;-36
2022/12/11 11:18:24;;;;;;;2.00;1.23;;;;;;;15.30;59.12;91439.88;5046545;28;21052;-36
2022/12/11 11:20:50;;;;;;;2.67;1.10;;;;;;;15.27;59.37;91439.06;5046652;28;20028;-37
2022/12/11 11:23:18;;;;;;;1.50;1.02;;;;;;;15.25;59.71;91452.16;5038208;28;20033;-36
2022/12/11 11:25:58;;;;;;;2.60;1.08;;;;;;;15.08;62.05;91457.00;5046830;28;20024;-36
2022/12/11 11:28:28;;;;;;;6.13;1.00;;;;;;;15.01;62.41;91468.44;5044752;28;20413;-36
2022/12/11 11:31:09;;;;;;;7.38;3.17;;;;;;;14.98;64.52;91478.78;5049626;28;20029;-37
2022/12/11 11:33:36;;;;;;;6.13;4.28;;;;;;;14.85;67.29;91476.06;5049604;28;20055;-36
2022/12/11 11:36:06;;;;;;;10.63;2.92;;;;;;;14.70;68.57;91476.72;5046850;28;20039;-36
2022/12/11 11:38:40;;;;;;;3.60;2.65;;;;;;;14.50;70.97;91472.97;5050463;28;20035;-36
2022/12/11 11:41:26;;;;;;;4.32;1.90;;;;;;;14.38;71.10;91464.78;5047849;28;20102;-36
2022/12/11 11:44:00;;;;;;;4.75;2.95;;;;;;;14.53;72.14;91460.66;5047125;28;20412;-36